createdAt,value
2022-10-14T00:02:04.700Z,22.80
2022-10-14T00:05:08.996Z,23.10
2022-10-14T00:08:10.710Z,23.10
2022-10-14T00:11:14.510Z,22.80
2022-10-14T00:14:19.043Z,22.70
2022-10-14T00:17:25.235Z,22.50
2022-10-14T00:20:28.982Z,23.30
2022-10-14T00:23:30.396Z,23.20
2022-10-14T00:26:34.287Z,23.10
2022-10-14T00:29:35.946Z,23.10
2022-10-14T00:32:37.448Z,23.20
2022-10-14T00:35:38.955Z,23.10
2022-10-14T00:38:44.951Z,22.80
2022-10-14T00:41:48.272Z,23.60
2022-10-14T00:45:01.187Z,23.10
2022-10-14T00:48:02.884Z,22.80
2022-10-14T00:51:09.016Z,23.10
2022-10-14T00:54:22.735Z,22.50
2022-10-14T00:57:37.673Z,22.50
2022-10-14T01:00:39.801Z,22.30
2022-10-14T01:03:41.543Z,22.90
2022-10-14T01:06:50.741Z,23.00
2022-10-14T01:10:00.407Z,22.90
2022-10-14T01:13:13.454Z,22.90
2022-10-14T01:16:21.502Z,22.80
2022-10-14T01:19:52.317Z,23.00
2022-10-14T01:23:07.155Z,23.10
2022-10-14T01:26:24.115Z,23.00
2022-10-14T01:29:55.261Z,22.60
2022-10-14T01:33:06.783Z,22.50
2022-10-14T01:36:18.074Z,22.40
2022-10-14T01:39:23.353Z,22.70
2022-10-14T01:42:28.995Z,22.60
2022-10-14T01:45:34.268Z,23.10
2022-10-14T01:48:40.228Z,22.90
2022-10-14T01:51:55.050Z,22.70
2022-10-14T01:55:01.096Z,22.70
2022-10-14T01:58:05.553Z,22.50
2022-10-14T02:01:09.245Z,22.90
2022-10-14T02:04:15.636Z,22.60
2022-10-14T02:07:22.990Z,23.00
2022-10-14T02:10:36.814Z,23.00
2022-10-14T02:14:02.238Z,23.00
2022-10-14T02:17:10.512Z,22.70
2022-10-14T02:20:21.721Z,22.50
2022-10-14T02:23:28.417Z,23.00
2022-10-14T02:26:33.238Z,22.70
2022-10-14T02:29:37.422Z,22.80
2022-10-14T02:32:41.047Z,23.10
2022-10-14T02:35:44.258Z,22.30
2022-10-14T02:38:47.080Z,22.30
2022-10-14T02:41:49.090Z,22.30
2022-10-14T02:44:53.630Z,22.60
2022-10-14T02:47:55.259Z,22.50
2022-10-14T02:50:57.730Z,22.60
2022-10-14T02:54:00.876Z,22.80
2022-10-14T02:57:03.367Z,22.50
2022-10-14T03:00:05.847Z,22.70
2022-10-14T03:03:09.662Z,22.70
2022-10-14T03:06:13.891Z,22.70
2022-10-14T03:09:15.614Z,22.50
2022-10-14T03:12:19.448Z,22.20
2022-10-14T03:15:21.237Z,22.30
2022-10-14T03:18:23.973Z,22.40
2022-10-14T03:21:31.428Z,22.20
2022-10-14T03:24:33.068Z,22.40
2022-10-14T03:27:53.071Z,22.60
2022-10-14T03:31:05.052Z,22.70
2022-10-14T03:34:26.262Z,22.70
2022-10-14T03:37:38.434Z,22.30
2022-10-14T03:40:39.905Z,22.30
2022-10-14T03:43:45.186Z,22.10
2022-10-14T03:46:47.796Z,22.70
2022-10-14T03:49:49.189Z,22.50
2022-10-14T03:53:01.854Z,22.70
2022-10-14T03:56:12.598Z,22.20
2022-10-14T03:59:15.793Z,22.70
2022-10-14T04:02:22.739Z,22.50
2022-10-14T04:05:32.957Z,22.50
2022-10-14T04:08:38.026Z,22.40
2022-10-14T04:11:53.017Z,22.50
2022-10-14T04:15:11.228Z,22.50
2022-10-14T04:18:32.301Z,22.60
2022-10-14T04:21:35.831Z,22.70
2022-10-14T04:24:38.203Z,22.60
2022-10-14T04:27:39.754Z,22.70
2022-10-14T04:30:43.245Z,22.60
2022-10-14T04:33:50.646Z,22.10
2022-10-14T04:36:59.147Z,22.60
2022-10-14T04:40:19.619Z,22.70
2022-10-14T04:43:22.562Z,22.80
2022-10-14T04:46:24.400Z,22.70
2022-10-14T04:49:26.374Z,22.70
2022-10-14T04:52:37.104Z,22.20
2022-10-14T04:55:45.205Z,22.60
2022-10-14T04:58:47.077Z,22.20
2022-10-14T05:01:48.705Z,22.50
2022-10-14T05:04:50.723Z,22.60
2022-10-14T05:07:52.647Z,22.60
2022-10-14T05:10:59.713Z,22.50
2022-10-14T05:14:15.284Z,22.70
2022-10-14T05:17:19.987Z,22.70
2022-10-14T05:20:21.506Z,22.30
2022-10-14T05:23:27.267Z,22.60
2022-10-14T05:26:33.859Z,22.60
2022-10-14T05:29:42.579Z,22.30
2022-10-14T05:32:44.621Z,22.20
2022-10-14T05:35:58.599Z,22.50
2022-10-14T05:39:02.300Z,22.50
2022-10-14T05:42:09.795Z,22.40
2022-10-14T05:45:15.187Z,22.10
2022-10-14T05:48:22.797Z,22.60
2022-10-14T05:51:24.068Z,22.50
2022-10-14T05:54:31.170Z,22.00
2022-10-14T05:57:34.295Z,22.60
2022-10-14T06:00:35.963Z,21.80
2022-10-14T06:03:42.574Z,22.40
2022-10-14T06:06:44.765Z,22.40
2022-10-14T06:09:46.306Z,22.50
2022-10-14T06:12:48.116Z,22.60
2022-10-14T06:15:49.750Z,22.30
2022-10-14T06:18:54.432Z,22.70
2022-10-14T06:21:57.012Z,22.60
2022-10-14T06:25:03.306Z,22.30
2022-10-14T06:28:06.634Z,22.10
2022-10-14T06:31:08.335Z,22.60
2022-10-14T06:34:10.051Z,22.40
2022-10-14T06:37:11.488Z,22.10
2022-10-14T06:40:12.819Z,22.70
2022-10-14T06:43:14.840Z,22.90
2022-10-14T06:46:16.421Z,22.60
2022-10-14T06:49:17.962Z,22.60
2022-10-14T06:52:19.632Z,22.30
2022-10-14T06:55:21.235Z,22.50
2022-10-14T06:58:25.886Z,22.70
2022-10-14T07:01:27.766Z,23.10
2022-10-14T07:04:29.509Z,22.70
2022-10-14T07:07:31.410Z,22.70
2022-10-14T07:10:32.892Z,22.90
2022-10-14T07:13:37.082Z,22.60
2022-10-14T07:16:38.623Z,22.50
2022-10-14T07:19:40.109Z,22.80
2022-10-14T07:22:41.986Z,23.20
2022-10-14T07:25:43.518Z,22.90
2022-10-14T07:28:45.933Z,22.50
2022-10-14T07:31:49.950Z,22.70
2022-10-14T07:34:52.510Z,22.50
2022-10-14T07:37:55.052Z,22.30
2022-10-14T07:41:02.719Z,22.80
2022-10-14T07:44:08.647Z,22.40
2022-10-14T07:47:12.918Z,22.60
2022-10-14T07:50:16.360Z,22.70
2022-10-14T07:53:19.338Z,22.50
2022-10-14T07:56:23.302Z,22.80
2022-10-14T07:59:25.903Z,22.80
2022-10-14T08:02:28.377Z,22.30
2022-10-14T08:05:38.104Z,22.30
2022-10-14T08:08:43.781Z,23.10
2022-10-14T08:11:47.997Z,22.50
2022-10-14T08:14:50.067Z,22.80
2022-10-14T08:17:51.790Z,22.80
2022-10-14T08:20:53.700Z,22.90
2022-10-14T08:23:55.701Z,22.30
2022-10-14T08:26:59.982Z,22.50
2022-10-14T08:30:05.954Z,22.80
2022-10-14T08:33:12.695Z,22.90
2022-10-14T08:36:15.046Z,22.80
2022-10-14T08:39:18.248Z,22.90
2022-10-14T08:42:34.263Z,22.90
2022-10-14T08:45:39.750Z,22.90
2022-10-14T08:48:42.443Z,22.80
2022-10-14T08:51:51.263Z,22.70
2022-10-14T08:54:58.515Z,22.70
2022-10-14T08:58:07.536Z,22.90
2022-10-14T09:01:40.711Z,22.60
2022-10-14T09:04:45.538Z,22.50
2022-10-14T09:07:48.849Z,22.30
2022-10-14T09:10:50.371Z,22.70
2022-10-14T09:13:57.183Z,22.50
2022-10-14T09:17:06.109Z,23.00
2022-10-14T09:20:18.505Z,22.90
2022-10-14T09:23:22.698Z,23.00
2022-10-14T09:27:16.413Z,23.20
2022-10-14T09:31:09.270Z,22.70
2022-10-14T09:34:20.264Z,22.40
2022-10-14T09:37:31.295Z,22.90
2022-10-14T09:40:41.105Z,22.30
2022-10-14T09:44:12.565Z,22.20
2022-10-14T09:47:18.026Z,22.80
2022-10-14T09:50:29.861Z,22.40
2022-10-14T09:53:36.548Z,22.80
2022-10-14T09:57:12.942Z,22.90
2022-10-14T10:00:32.057Z,22.80
2022-10-14T10:03:34.998Z,22.70
2022-10-14T10:06:59.233Z,22.70
2022-10-14T10:10:41.099Z,22.40
2022-10-14T10:14:01.171Z,22.50
2022-10-14T10:17:21.205Z,22.50
2022-10-14T10:20:31.081Z,22.40
2022-10-14T10:23:35.331Z,23.00
2022-10-14T10:26:36.922Z,22.70
2022-10-14T10:29:38.374Z,23.10
2022-10-14T10:32:46.545Z,22.70
2022-10-14T10:36:04.586Z,22.80
2022-10-14T10:39:15.252Z,22.80
2022-10-14T10:42:25.317Z,23.00
2022-10-14T10:45:38.199Z,23.00
2022-10-14T10:48:46.611Z,23.10
2022-10-14T10:51:54.526Z,23.10
2022-10-14T10:55:05.986Z,22.80
2022-10-14T10:58:18.696Z,22.80
2022-10-14T11:01:35.841Z,22.70
2022-10-14T11:04:45.213Z,23.60
2022-10-14T11:08:08.761Z,23.00
2022-10-14T11:11:40.522Z,22.90
2022-10-14T11:14:57.162Z,23.60
2022-10-14T11:18:03.446Z,23.20
2022-10-14T11:21:15.515Z,23.10
2022-10-14T11:24:25.136Z,23.40
2022-10-14T11:27:36.265Z,23.10
2022-10-14T11:30:46.796Z,23.00
2022-10-14T11:34:02.561Z,22.80
2022-10-14T11:37:20.476Z,22.80
2022-10-14T11:40:31.414Z,23.20
2022-10-14T11:43:45.414Z,23.60
2022-10-14T11:51:45.089Z,22.80
2022-10-14T11:55:14.648Z,22.90
2022-10-14T11:58:26.521Z,22.70
2022-10-14T12:01:35.773Z,23.00
2022-10-14T12:04:44.609Z,21.50
2022-10-14T12:08:02.637Z,23.40
2022-10-14T12:11:11.135Z,22.90
2022-10-14T12:14:18.517Z,23.40
2022-10-14T12:17:25.884Z,23.30
2022-10-14T12:20:37.507Z,23.30
2022-10-14T12:23:44.089Z,23.50
2022-10-14T12:26:51.906Z,23.10
2022-10-14T12:29:56.704Z,23.20
2022-10-14T12:33:01.954Z,23.30
2022-10-14T12:36:03.538Z,23.40
2022-10-14T12:39:21.607Z,23.10
2022-10-14T12:42:23.747Z,23.50
2022-10-14T12:45:27.838Z,23.40
2022-10-14T12:48:32.721Z,23.30
2022-10-14T12:51:35.501Z,23.60
2022-10-14T12:54:45.365Z,23.10
2022-10-14T12:57:53.582Z,23.60
2022-10-14T13:00:59.876Z,23.40
2022-10-14T13:04:04.938Z,23.10
2022-10-14T13:07:46.411Z,23.70
2022-10-14T13:11:08.277Z,23.10
2022-10-14T13:14:22.042Z,23.80
2022-10-14T13:17:43.880Z,23.50
2022-10-14T13:20:51.396Z,23.30
2022-10-14T13:23:54.606Z,23.30
2022-10-14T13:27:07.653Z,23.70
2022-10-14T13:30:18.060Z,23.70
2022-10-14T13:33:26.108Z,23.60
2022-10-14T13:36:34.751Z,23.20
2022-10-14T13:39:36.481Z,23.50
2022-10-14T13:42:39.572Z,23.50
2022-10-14T13:45:44.414Z,23.60
2022-10-14T13:48:48.139Z,23.60
2022-10-14T13:51:54.527Z,23.70
2022-10-14T13:55:12.928Z,23.50
2022-10-14T13:58:19.372Z,23.30
2022-10-14T14:01:23.364Z,23.60
2022-10-14T14:04:29.273Z,23.60
2022-10-14T14:08:22.262Z,23.60
2022-10-14T14:11:16.754Z,23.30
2022-10-14T14:14:21.719Z,23.80
2022-10-14T14:17:35.308Z,23.50
2022-10-14T14:20:37.649Z,23.80
2022-10-14T14:23:50.023Z,23.70
2022-10-14T14:26:54.622Z,23.50
2022-10-14T14:29:59.334Z,23.70
2022-10-14T14:33:03.644Z,23.50
2022-10-14T14:36:12.105Z,23.30
2022-10-14T14:39:24.089Z,23.40
2022-10-14T14:42:28.931Z,23.70
2022-10-14T14:45:34.641Z,23.60
2022-10-14T14:48:50.839Z,23.20
2022-10-14T14:51:59.214Z,23.30
2022-10-14T14:55:01.957Z,23.50
2022-10-14T14:58:12.015Z,23.40
2022-10-14T15:01:19.636Z,23.80
2022-10-14T15:04:27.737Z,23.50
2022-10-14T15:07:29.804Z,23.70
2022-10-14T15:10:32.141Z,23.70
2022-10-14T15:13:49.935Z,23.80
2022-10-14T15:16:53.462Z,23.80
2022-10-14T15:19:56.344Z,23.80
2022-10-14T15:22:58.515Z,23.70
2022-10-14T15:26:04.216Z,23.50
2022-10-14T15:29:16.335Z,24.10
2022-10-14T15:32:26.208Z,23.60
2022-10-14T15:35:28.686Z,23.50
2022-10-14T15:41:32.637Z,23.70
2022-10-14T15:44:34.063Z,23.30
2022-10-14T15:47:36.067Z,23.80
2022-10-14T15:50:38.706Z,23.40
2022-10-14T15:53:40.298Z,23.90
2022-10-14T15:56:42.400Z,23.90
2022-10-14T15:59:43.910Z,23.80
2022-10-14T16:02:47.112Z,24.10
2022-10-14T16:05:48.800Z,23.50
2022-10-14T16:08:50.424Z,23.30
2022-10-14T16:11:56.426Z,23.50
2022-10-14T16:14:58.788Z,23.80
2022-10-14T16:18:01.017Z,23.80
2022-10-14T16:21:02.430Z,24.20
2022-10-14T16:24:16.592Z,23.80
2022-10-14T16:27:19.637Z,23.60
2022-10-14T16:30:21.315Z,23.40
2022-10-14T16:33:23.005Z,23.80
2022-10-14T16:36:26.864Z,23.70
2022-10-14T16:39:31.121Z,23.70
2022-10-14T16:42:33.479Z,23.80
2022-10-14T16:45:35.259Z,23.80
2022-10-14T16:48:37.024Z,23.70
2022-10-14T16:51:38.606Z,23.50
2022-10-14T16:54:40.885Z,23.70
2022-10-14T16:57:42.994Z,24.10
2022-10-14T17:00:45.587Z,24.20
2022-10-14T17:03:47.692Z,24.00
2022-10-14T17:06:49.240Z,24.10
2022-10-14T17:09:51.889Z,23.90
2022-10-14T17:12:54.701Z,23.90
2022-10-14T17:15:59.582Z,23.60
2022-10-14T17:19:01.174Z,23.70
2022-10-14T17:22:03.164Z,23.80
2022-10-14T17:25:07.589Z,23.90
2022-10-14T17:28:11.927Z,23.50
2022-10-14T17:31:15.707Z,23.30
2022-10-14T17:34:17.379Z,23.80
2022-10-14T17:37:18.910Z,23.90
2022-10-14T17:40:20.590Z,23.70
2022-10-14T17:43:23.513Z,23.50
2022-10-14T17:46:26.303Z,23.60
2022-10-14T17:49:30.475Z,23.70
2022-10-14T17:52:31.936Z,23.70
2022-10-14T17:55:35.587Z,23.50
2022-10-14T17:58:38.057Z,23.70
2022-10-14T18:05:01.636Z,23.40
2022-10-14T18:08:03.145Z,23.60
2022-10-14T18:11:09.939Z,23.40
2022-10-14T18:14:13.641Z,23.40
2022-10-14T18:17:15.116Z,23.40
2022-10-14T18:20:16.761Z,23.60
2022-10-14T18:23:18.182Z,23.30
2022-10-14T18:26:21.156Z,23.80
2022-10-14T18:29:23.691Z,23.50
2022-10-14T18:32:25.759Z,23.40
2022-10-14T18:35:27.563Z,23.50
2022-10-14T18:38:29.038Z,23.50
2022-10-14T18:41:30.916Z,23.40
2022-10-14T18:44:33.037Z,23.70
2022-10-14T18:47:34.429Z,23.50
2022-10-14T18:50:35.733Z,23.60
2022-10-14T18:53:39.403Z,23.30
2022-10-14T18:56:41.175Z,23.50
2022-10-14T18:59:43.307Z,23.60
2022-10-14T19:02:44.925Z,23.40
2022-10-14T19:05:46.840Z,23.70
2022-10-14T19:08:49.479Z,23.30
2022-10-14T19:11:51.748Z,23.10
2022-10-14T19:14:53.981Z,23.60
2022-10-14T19:17:55.842Z,23.10
2022-10-14T19:21:03.094Z,23.30
2022-10-14T19:24:06.260Z,23.10
2022-10-14T19:27:07.875Z,23.60
2022-10-14T19:30:10.668Z,23.50
2022-10-14T19:33:12.340Z,23.50
2022-10-14T19:36:16.409Z,23.10
2022-10-14T19:39:18.827Z,23.40
2022-10-14T19:42:20.251Z,23.30
2022-10-14T19:45:22.142Z,23.40
2022-10-14T19:48:23.983Z,23.00
2022-10-14T19:51:26.406Z,23.30
2022-10-14T19:54:28.311Z,23.50
2022-10-14T19:57:29.697Z,23.40
2022-10-14T20:00:31.708Z,23.10
2022-10-14T20:03:33.369Z,23.50
2022-10-14T20:06:39.421Z,23.10
2022-10-14T20:09:41.350Z,23.30
2022-10-14T20:12:43.295Z,23.40
2022-10-14T20:15:51.256Z,22.90
2022-10-14T20:18:52.825Z,23.30
2022-10-14T20:21:55.030Z,23.30
2022-10-14T20:24:56.519Z,23.40
2022-10-14T20:27:58.020Z,23.20
2022-10-14T20:31:00.060Z,23.50
2022-10-14T20:34:01.783Z,23.50
2022-10-14T20:37:03.529Z,23.50
2022-10-14T20:40:05.970Z,23.40
2022-10-14T20:43:08.455Z,23.50
2022-10-14T20:46:11.387Z,22.80
2022-10-14T20:49:13.517Z,23.40
2022-10-14T20:52:15.465Z,23.60
2022-10-14T20:55:17.222Z,23.20
2022-10-14T20:58:20.127Z,23.20
2022-10-14T21:01:23.486Z,23.20
2022-10-14T21:04:25.121Z,23.40
2022-10-14T21:07:27.558Z,23.20
2022-10-14T21:10:29.610Z,23.10
2022-10-14T21:13:31.777Z,23.30
2022-10-14T21:16:35.219Z,23.20
2022-10-14T21:19:36.640Z,23.30
2022-10-14T21:22:38.042Z,23.00
2022-10-14T21:25:39.633Z,23.10
2022-10-14T21:28:41.220Z,23.30
2022-10-14T21:31:43.835Z,23.20
2022-10-14T21:34:45.327Z,23.30
2022-10-14T21:37:46.919Z,23.30
2022-10-14T21:40:48.494Z,23.30
2022-10-14T21:43:50.411Z,23.20
2022-10-14T21:46:55.544Z,23.00
2022-10-14T21:49:56.886Z,23.20
2022-10-14T21:52:58.284Z,23.30
2022-10-14T21:56:00.395Z,23.60
2022-10-14T21:59:01.856Z,23.10
2022-10-14T22:02:03.809Z,23.30
2022-10-14T22:05:05.388Z,23.40
2022-10-14T22:08:10.080Z,23.30
2022-10-14T22:11:15.902Z,23.00
2022-10-14T22:14:17.628Z,22.90
2022-10-14T22:17:19.655Z,23.20
2022-10-14T22:20:21.125Z,23.30
2022-10-14T22:23:25.677Z,22.90
2022-10-14T22:26:29.508Z,22.90
2022-10-14T22:29:31.130Z,22.90
2022-10-14T22:32:33.240Z,23.40
2022-10-14T22:35:34.631Z,23.20
2022-10-14T22:38:36.103Z,23.40
2022-10-14T22:41:37.834Z,23.00
2022-10-14T22:44:39.237Z,23.10
2022-10-14T22:47:41.096Z,23.40
2022-10-14T22:50:42.642Z,22.80
2022-10-14T22:53:45.695Z,23.10
2022-10-14T22:56:47.371Z,23.00
2022-10-14T22:59:48.821Z,23.20
2022-10-14T23:02:50.628Z,23.20
2022-10-14T23:05:52.174Z,22.80
2022-10-14T23:08:54.436Z,23.70
2022-10-14T23:11:56.059Z,23.20
2022-10-14T23:14:57.507Z,23.10
2022-10-14T23:17:59.584Z,22.80
2022-10-14T23:21:07.230Z,23.30
2022-10-14T23:24:11.875Z,22.80
2022-10-14T23:27:13.272Z,22.90
2022-10-14T23:30:14.537Z,22.90
2022-10-14T23:33:16.565Z,22.80
2022-10-14T23:36:19.907Z,23.20
2022-10-14T23:39:21.499Z,22.80
2022-10-14T23:42:22.939Z,23.00
2022-10-14T23:45:24.209Z,23.10
2022-10-14T23:48:26.742Z,22.80
2022-10-14T23:51:28.312Z,23.00
2022-10-14T23:54:30.064Z,23.10
2022-10-14T23:57:31.532Z,23.40
